Time;durP1;ratioP1;P1;durP2;ratioP2;P2;SDS_P1;SDS_P2;PMS_P1;PMS_P2;Temp;Humidity;BMP_temperature;BMP_pressure;BME280_temperature;BME280_humidity;BME280_pressure;Samples;Min_cycle;Max_cycle;Signal;HPM_P1;HPM_P2
2022/10/10 00:01:50;;;;;;;0.22;0.22;;;6.20;99.90;;;;;;4983116;28;20098;-76
2022/10/10 00:04:15;;;;;;;0.00;0.00;;;6.10;99.90;;;;;;4984339;28;20039;-77
2022/10/10 00:06:41;;;;;;;0.20;0.20;;;6.00;99.90;;;;;;4983468;28;20047;-76
2022/10/10 00:09:07;;;;;;;0.00;0.00;;;5.90;99.90;;;;;;4984420;28;20035;-75
2022/10/10 00:11:34;;;;;;;0.00;0.00;;;5.90;99.90;;;;;;4983449;28;20043;-76
2022/10/10 00:14:00;;;;;;;0.05;0.05;;;5.80;99.90;;;;;;4978481;28;20035;-77
2022/10/10 00:16:25;;;;;;;0.10;0.10;;;5.70;99.90;;;;;;4982606;28;20039;-76
2022/10/10 00:18:51;;;;;;;0.10;0.10;;;5.50;99.90;;;;;;4983009;28;20118;-77
2022/10/10 00:21:17;;;;;;;1.20;0.38;;;5.40;99.90;;;;;;4982937;28;20033;-76
2022/10/10 00:23:42;;;;;;;0.28;0.28;;;5.30;99.90;;;;;;4982949;28;20057;-76
2022/10/10 00:26:08;;;;;;;0.20;0.20;;;5.10;99.90;;;;;;4982740;28;20077;-75
2022/10/10 00:28:37;;;;;;;0.00;0.00;;;5.00;99.90;;;;;;4982240;28;20049;-76
2022/10/10 00:31:04;;;;;;;0.20;0.20;;;5.00;99.90;;;;;;4983295;28;20055;-77
2022/10/10 00:33:29;;;;;;;0.10;0.10;;;5.00;99.90;;;;;;4982435;28;20043;-76
2022/10/10 00:35:55;;;;;;;0.55;0.45;;;5.00;99.90;;;;;;4982726;28;20051;-76
2022/10/10 00:38:20;;;;;;;0.10;0.10;;;4.90;99.90;;;;;;4982918;28;20142;-77
2022/10/10 00:40:53;;;;;;;3.60;0.80;;;4.90;99.90;;;;;;4981616;28;20046;-76
2022/10/10 00:43:21;;;;;;;0.20;0.20;;;5.00;99.90;;;;;;4981738;28;20046;-76
2022/10/10 00:45:47;;;;;;;0.22;0.22;;;5.00;99.90;;;;;;4983586;28;20070;-76
2022/10/10 00:48:14;;;;;;;0.00;0.00;;;5.30;99.90;;;;;;4982856;28;20061;-76
2022/10/10 00:50:48;;;;;;;1.02;0.73;;;5.70;99.90;;;;;;4983392;28;20040;-76
2022/10/10 00:53:18;;;;;;;0.00;0.00;;;5.80;99.90;;;;;;4966921;28;20077;-77
2022/10/10 00:55:45;;;;;;;4.97;2.38;;;5.90;99.90;;;;;;4982978;28;20135;-75
2022/10/10 00:58:12;;;;;;;0.00;0.00;;;5.90;99.90;;;;;;4984507;28;20043;-77
2022/10/10 01:00:38;;;;;;;0.00;0.00;;;6.10;99.90;;;;;;4981941;28;20042;-76
2022/10/10 01:03:03;;;;;;;1.52;0.88;;;6.10;99.90;;;;;;4980999;28;20093;-76
2022/10/10 01:05:29;;;;;;;0.30;0.30;;;6.10;99.90;;;;;;4984266;28;20707;-75
2022/10/10 01:07:55;;;;;;;0.00;0.00;;;6.10;99.90;;;;;;4983877;28;20093;-77
2022/10/10 01:10:23;;;;;;;0.00;0.00;;;6.70;99.90;;;;;;4982323;28;20043;-75
2022/10/10 01:12:49;;;;;;;1.10;0.20;;;6.00;99.90;;;;;;4982810;28;20031;-74
2022/10/10 01:15:26;;;;;;;0.00;0.00;;;6.00;99.90;;;;;;4983395;28;20466;-75
2022/10/10 01:18:11;;;;;;;0.00;0.00;;;5.90;99.90;;;;;;4977760;28;20088;-76
2022/10/10 01:20:45;;;;;;;0.03;0.03;;;5.90;99.90;;;;;;4981233;28;20058;-76
2022/10/10 01:23:35;;;;;;;0.10;0.10;;;6.10;99.90;;;;;;4982184;28;20070;-76
2022/10/10 01:26:29;;;;;;;0.00;0.00;;;6.00;99.90;;;;;;4985574;28;20038;-77
2022/10/10 01:28:57;;;;;;;0.20;0.20;;;6.20;99.90;;;;;;4985000;28;20022;-76
2022/10/10 01:31:24;;;;;;;0.95;0.45;;;6.30;99.90;;;;;;4985434;28;20039;-76
2022/10/10 01:34:16;;;;;;;0.60;0.52;;;6.40;99.90;;;;;;4984184;28;20030;-76
2022/10/10 01:37:03;;;;;;;0.10;0.10;;;6.40;99.90;;;;;;4962411;28;20115;-77
2022/10/10 01:39:55;;;;;;;0.05;0.05;;;6.50;99.90;;;;;;4983621;28;20031;-74
2022/10/10 01:42:49;;;;;;;0.40;0.30;;;6.50;99.90;;;;;;4966081;28;20094;-77
2022/10/10 01:45:14;;;;;;;0.00;0.00;;;6.60;99.90;;;;;;4979223;28;20054;-75
2022/10/10 01:47:40;;;;;;;0.22;0.22;;;6.70;99.90;;;;;;4981742;28;20063;-76
2022/10/10 01:50:13;;;;;;;2.17;0.57;;;6.70;99.90;;;;;;4986584;28;20109;-77
2022/10/10 01:53:02;;;;;;;0.03;0.03;;;6.70;99.90;;;;;;4987755;28;20038;-76
2022/10/10 01:55:50;;;;;;;0.32;0.32;;;6.70;99.90;;;;;;4989209;28;20104;-75
2022/10/10 02:01:22;;;;;;;2.63;1.27;;;6.80;99.90;;;;;;5016210;23;20054;-79
2022/10/10 02:04:01;;;;;;;2.17;1.02;;;6.80;99.90;;;;;;4986443;28;20112;-78
2022/10/10 02:06:40;;;;;;;0.13;0.13;;;6.80;99.90;;;;;;4990045;28;20070;-78
2022/10/10 02:09:15;;;;;;;0.00;0.00;;;6.70;99.90;;;;;;4989648;28;20045;-78
2022/10/10 02:11:41;;;;;;;1.58;1.20;;;6.60;99.90;;;;;;4990414;28;20050;-79
2022/10/10 02:14:14;;;;;;;0.08;0.08;;;6.50;99.90;;;;;;4973624;28;20042;-79
2022/10/10 02:16:43;;;;;;;0.55;0.32;;;6.60;99.90;;;;;;4990200;28;20058;-78
2022/10/10 02:19:11;;;;;;;0.00;0.00;;;6.50;99.90;;;;;;4990819;28;20038;-79
2022/10/10 02:21:39;;;;;;;0.30;0.30;;;6.50;99.90;;;;;;4990217;28;20400;-80
2022/10/10 02:24:07;;;;;;;0.10;0.10;;;6.60;99.90;;;;;;4974179;28;20432;-79
2022/10/10 02:26:35;;;;;;;1.05;0.52;;;6.60;99.90;;;;;;4991493;28;20058;-78
2022/10/10 02:29:10;;;;;;;0.45;0.43;;;6.70;99.90;;;;;;4991483;28;20105;-78
2022/10/10 02:32:13;;;;;;;0.80;0.73;;;6.80;99.90;;;;;;4990206;28;20046;-79
2022/10/10 02:34:46;;;;;;;0.47;0.47;;;6.80;99.90;;;;;;4989226;28;20042;-77
2022/10/10 02:37:15;;;;;;;0.00;0.00;;;6.90;99.90;;;;;;4991061;28;20054;-78
2022/10/10 02:39:44;;;;;;;0.15;0.10;;;6.80;99.90;;;;;;4990555;28;20057;-78
2022/10/10 02:42:13;;;;;;;0.00;0.00;;;6.80;99.90;;;;;;4991246;28;20076;-78
2022/10/10 02:44:39;;;;;;;0.70;0.43;;;6.80;99.90;;;;;;4994405;28;20034;-78
2022/10/10 02:47:05;;;;;;;0.00;0.00;;;6.70;99.90;;;;;;4995833;28;20077;-79
2022/10/10 02:49:33;;;;;;;0.20;0.20;;;6.70;99.90;;;;;;4995276;28;20046;-78
2022/10/10 02:51:59;;;;;;;0.30;0.25;;;6.60;99.90;;;;;;4991365;28;20046;-78
2022/10/10 02:54:25;;;;;;;8.05;0.75;;;6.70;99.90;;;;;;5006411;28;20561;-80
2022/10/10 02:56:50;;;;;;;0.22;0.22;;;6.70;99.90;;;;;;4991022;28;20042;-78
2022/10/10 02:59:16;;;;;;;0.00;0.00;;;6.60;99.90;;;;;;4991026;28;20494;-79
2022/10/10 03:01:42;;;;;;;0.10;0.10;;;6.60;99.90;;;;;;4982467;28;20081;-78
2022/10/10 03:04:08;;;;;;;0.20;0.20;;;6.60;99.90;;;;;;4970643;28;20050;-78
2022/10/10 03:06:33;;;;;;;0.10;0.10;;;6.50;99.90;;;;;;4984567;28;20057;-78
2022/10/10 03:08:59;;;;;;;0.00;0.00;;;6.40;99.90;;;;;;4988986;28;20053;-78
2022/10/10 03:11:25;;;;;;;0.20;0.20;;;6.40;99.90;;;;;;4967104;28;20045;-79
2022/10/10 03:13:50;;;;;;;0.20;0.20;;;6.40;99.90;;;;;;4953555;28;20045;-79
2022/10/10 03:16:16;;;;;;;10.50;0.70;;;6.40;99.90;;;;;;4969899;28;20069;-77
2022/10/10 03:18:41;;;;;;;0.32;0.28;;;6.40;99.90;;;;;;4970845;28;20042;-78
2022/10/10 03:21:07;;;;;;;0.08;0.08;;;6.50;99.90;;;;;;4971347;28;20457;-77
2022/10/10 03:23:34;;;;;;;0.00;0.00;;;6.40;99.90;;;;;;4970957;28;20054;-78
2022/10/10 03:26:00;;;;;;;0.00;0.00;;;6.50;99.90;;;;;;4971459;28;20074;-78
2022/10/10 03:28:26;;;;;;;0.05;0.05;;;6.60;99.90;;;;;;4955369;28;20126;-79
2022/10/10 03:30:51;;;;;;;1.25;0.77;;;6.70;99.90;;;;;;4971402;28;20513;-80
2022/10/10 03:33:17;;;;;;;0.10;0.10;;;6.70;99.90;;;;;;4989472;28;20169;-78
2022/10/10 03:35:42;;;;;;;0.57;0.55;;;6.70;99.90;;;;;;4985381;28;20042;-78
2022/10/10 03:38:11;;;;;;;0.30;0.30;;;7.00;99.90;;;;;;4971014;28;20409;-79
2022/10/10 03:40:39;;;;;;;0.30;0.30;;;6.70;99.90;;;;;;4954105;28;20054;-78
2022/10/10 03:43:06;;;;;;;1.77;0.82;;;6.60;99.90;;;;;;4989052;28;20042;-78
2022/10/10 03:45:32;;;;;;;0.17;0.17;;;6.60;99.90;;;;;;4988170;28;20604;-78
2022/10/10 03:47:58;;;;;;;0.55;0.40;;;6.50;99.90;;;;;;4970460;28;20125;-79
2022/10/10 03:50:23;;;;;;;0.32;0.30;;;6.50;99.90;;;;;;4970186;28;20082;-77
2022/10/10 03:52:49;;;;;;;1.55;0.90;;;6.50;99.90;;;;;;4970030;28;20386;-80
2022/10/10 03:55:15;;;;;;;0.10;0.10;;;6.50;99.90;;;;;;4969753;28;20047;-78
2022/10/10 03:57:40;;;;;;;0.22;0.22;;;6.50;99.90;;;;;;4970176;28;20394;-78
2022/10/10 04:00:07;;;;;;;0.00;0.00;;;6.40;99.90;;;;;;4933530;29;20063;-78
2022/10/10 04:02:33;;;;;;;0.20;0.20;;;6.50;99.90;;;;;;4950722;29;20132;-78
2022/10/10 04:04:59;;;;;;;0.45;0.10;;;6.50;99.90;;;;;;4951363;29;20391;-78
2022/10/10 04:07:24;;;;;;;0.30;0.30;;;6.50;99.90;;;;;;4967628;28;20046;-79
2022/10/10 04:09:50;;;;;;;0.10;0.10;;;6.60;99.90;;;;;;4970147;28;20046;-78
2022/10/10 04:12:15;;;;;;;0.98;0.60;;;6.70;99.90;;;;;;4969631;28;20575;-78
2022/10/10 04:14:41;;;;;;;0.10;0.10;;;6.50;99.90;;;;;;4969485;28;20042;-80
2022/10/10 04:17:06;;;;;;;2.50;1.02;;;6.60;99.90;;;;;;4969692;28;20177;-79
2022/10/10 04:19:32;;;;;;;0.10;0.10;;;6.60;99.90;;;;;;4969009;28;20050;-80
2022/10/10 04:21:58;;;;;;;0.30;0.30;;;6.70;99.90;;;;;;4976353;28;20658;-79
2022/10/10 04:24:23;;;;;;;0.30;0.30;;;6.60;99.90;;;;;;4952278;28;20149;-78
2022/10/10 04:26:49;;;;;;;0.52;0.52;;;6.60;99.90;;;;;;4969240;28;20073;-78
2022/10/10 04:29:15;;;;;;;0.00;0.00;;;6.40;99.90;;;;;;4968549;28;20050;-78
2022/10/10 04:31:40;;;;;;;0.20;0.20;;;6.40;99.90;;;;;;4970695;28;20050;-78
2022/10/10 04:34:06;;;;;;;0.65;0.45;;;6.40;99.90;;;;;;4985158;28;20256;-79
2022/10/10 04:36:31;;;;;;;0.10;0.10;;;6.40;99.90;;;;;;4978717;28;20512;-78
2022/10/10 04:38:58;;;;;;;0.55;0.47;;;6.30;99.90;;;;;;4964976;28;20046;-79
2022/10/10 04:41:24;;;;;;;0.10;0.10;;;6.20;99.90;;;;;;4966107;28;20130;-78
2022/10/10 04:43:49;;;;;;;0.17;0.17;;;6.10;99.90;;;;;;4983233;28;20137;-78
2022/10/10 04:46:15;;;;;;;1.67;0.47;;;6.00;99.90;;;;;;4983516;28;20093;-78
2022/10/10 04:48:40;;;;;;;3.22;2.25;;;6.00;99.90;;;;;;4971183;28;20161;-78
2022/10/10 04:51:06;;;;;;;0.38;0.32;;;6.10;99.90;;;;;;4964319;28;20043;-79
2022/10/10 04:53:32;;;;;;;1.65;1.50;;;6.00;99.90;;;;;;4963583;28;20138;-78
2022/10/10 04:55:57;;;;;;;2.92;0.75;;;6.00;99.90;;;;;;4975602;28;20053;-79
2022/10/10 04:58:23;;;;;;;0.17;0.17;;;6.00;99.90;;;;;;4982050;28;20113;-78
2022/10/10 05:00:52;;;;;;;0.20;0.17;;;6.10;99.90;;;;;;4982530;28;20066;-77
2022/10/10 05:03:18;;;;;;;1.42;1.33;;;6.00;99.90;;;;;;4963822;28;20061;-82
2022/10/10 05:05:44;;;;;;;1.38;0.65;;;6.10;99.90;;;;;;4963193;28;20516;-79
2022/10/10 05:08:10;;;;;;;2.85;1.95;;;6.10;99.90;;;;;;4963669;28;20055;-78
2022/10/10 05:10:40;;;;;;;0.05;0.05;;;6.10;99.90;;;;;;4964106;28;20129;-78
2022/10/10 05:13:07;;;;;;;0.00;0.00;;;6.10;99.90;;;;;;4964390;28;20055;-79
2022/10/10 05:15:36;;;;;;;2.13;0.63;;;6.00;99.90;;;;;;4964971;28;20047;-78
2022/10/10 05:18:02;;;;;;;0.20;0.20;;;5.90;99.90;;;;;;4965238;28;20089;-78
2022/10/10 05:20:29;;;;;;;1.10;0.88;;;5.90;99.90;;;;;;4964844;28;20057;-77
2022/10/10 05:22:55;;;;;;;2.35;0.43;;;5.90;99.90;;;;;;4965483;28;20122;-80
2022/10/10 05:25:20;;;;;;;1.10;0.45;;;5.90;99.90;;;;;;4967471;28;20473;-78
2022/10/10 05:27:46;;;;;;;0.00;0.00;;;5.90;99.90;;;;;;4967973;28;20047;-78
2022/10/10 05:30:12;;;;;;;0.60;0.52;;;6.00;99.90;;;;;;4968082;28;20043;-78
2022/10/10 05:32:38;;;;;;;1.73;0.52;;;6.30;99.90;;;;;;4968246;28;20521;-79
2022/10/10 05:35:04;;;;;;;0.38;0.38;;;6.10;99.90;;;;;;4968646;28;20054;-78
2022/10/10 05:37:31;;;;;;;0.75;0.75;;;6.10;99.90;;;;;;4968886;28;20213;-77
2022/10/10 05:39:56;;;;;;;0.95;0.88;;;6.10;99.90;;;;;;4968637;28;20054;-78
2022/10/10 05:42:22;;;;;;;0.30;0.30;;;6.20;99.90;;;;;;4969071;28;20409;-78
2022/10/10 05:44:48;;;;;;;0.00;0.00;;;6.30;99.90;;;;;;4969034;28;20102;-78
2022/10/10 05:47:14;;;;;;;0.40;0.40;;;6.30;99.90;;;;;;4969398;28;20051;-78
2022/10/10 05:49:40;;;;;;;0.00;0.00;;;6.30;99.90;;;;;;4976079;28;20043;-79
2022/10/10 05:52:06;;;;;;;0.10;0.10;;;6.30;99.90;;;;;;4975947;28;20121;-78
2022/10/10 05:54:32;;;;;;;1.23;1.10;;;6.30;99.90;;;;;;4969615;28;20039;-78
2022/10/10 05:56:57;;;;;;;0.63;0.57;;;6.30;99.90;;;;;;4969144;28;20074;-77
2022/10/10 05:59:23;;;;;;;0.10;0.10;;;6.30;99.90;;;;;;4951157;28;20559;-79
2022/10/10 06:01:48;;;;;;;0.98;0.80;;;6.30;99.90;;;;;;4968541;28;20055;-80
2022/10/10 06:04:14;;;;;;;0.10;0.10;;;6.40;99.90;;;;;;4968633;28;20063;-78
2022/10/10 06:06:40;;;;;;;1.60;1.20;;;6.30;99.90;;;;;;4968644;28;20101;-79
2022/10/10 06:09:06;;;;;;;5.18;0.43;;;6.40;99.90;;;;;;4968390;28;20057;-77
2022/10/10 06:11:31;;;;;;;1.15;0.40;;;6.30;99.90;;;;;;4967492;28;20058;-78
2022/10/10 06:13:57;;;;;;;0.00;0.00;;;6.30;99.90;;;;;;4967988;28;20047;-78
2022/10/10 06:16:25;;;;;;;0.35;0.35;;;6.30;99.90;;;;;;4967134;28;20109;-79
2022/10/10 06:18:51;;;;;;;0.63;0.40;;;6.30;99.90;;;;;;4967850;28;20449;-78
2022/10/10 06:21:18;;;;;;;6.72;5.95;;;6.30;99.90;;;;;;4967884;28;20049;-77
2022/10/10 06:23:44;;;;;;;0.32;0.28;;;6.40;99.90;;;;;;4967058;28;20039;-78
2022/10/10 06:26:10;;;;;;;0.00;0.00;;;6.30;99.90;;;;;;4967838;28;20058;-80
2022/10/10 06:28:36;;;;;;;0.45;0.45;;;6.40;99.90;;;;;;4967517;28;20050;-79
2022/10/10 06:31:04;;;;;;;0.40;0.32;;;6.40;99.90;;;;;;4966905;28;20047;-79
2022/10/10 06:33:30;;;;;;;3.08;1.95;;;6.50;99.90;;;;;;4966888;28;20054;-79
2022/10/10 06:35:56;;;;;;;0.88;0.50;;;6.50;99.90;;;;;;4966587;28;20043;-78
2022/10/10 06:38:22;;;;;;;0.55;0.55;;;6.60;99.90;;;;;;4949369;28;20057;-79
2022/10/10 06:40:47;;;;;;;1.95;0.38;;;6.60;99.90;;;;;;4949090;28;20043;-79
2022/10/10 06:43:14;;;;;;;0.43;0.43;;;6.70;99.90;;;;;;4949771;28;20050;-78
2022/10/10 06:45:46;;;;;;;0.00;0.00;;;6.80;99.90;;;;;;4967290;28;20062;-80
2022/10/10 06:48:13;;;;;;;0.30;0.30;;;6.80;99.90;;;;;;4966964;28;20051;-79
2022/10/10 06:50:38;;;;;;;1.13;1.05;;;6.90;99.90;;;;;;4967101;28;20050;-79
2022/10/10 06:53:04;;;;;;;0.00;0.00;;;7.10;99.90;;;;;;4967842;28;20065;-79
2022/10/10 06:55:30;;;;;;;0.60;0.60;;;7.10;99.90;;;;;;4967530;28;20047;-79
2022/10/10 06:57:56;;;;;;;0.03;0.03;;;7.10;99.90;;;;;;4966901;28;20055;-80
2022/10/10 07:00:22;;;;;;;0.75;0.75;;;7.10;99.90;;;;;;4967189;28;20053;-80
2022/10/10 07:02:47;;;;;;;0.17;0.17;;;7.20;99.90;;;;;;4967181;28;20050;-79
2022/10/10 07:05:15;;;;;;;0.82;0.43;;;7.30;99.90;;;;;;4967564;28;20061;-79
2022/10/10 07:07:41;;;;;;;0.75;0.75;;;7.40;99.90;;;;;;4966053;28;20121;-78
2022/10/10 07:10:10;;;;;;;1.83;0.75;;;7.50;99.90;;;;;;4965166;28;20046;-80
2022/10/10 07:12:37;;;;;;;0.80;0.65;;;7.70;99.90;;;;;;4965547;28;20058;-80
2022/10/10 07:15:03;;;;;;;0.20;0.20;;;7.80;99.90;;;;;;4966247;28;20043;-80
2022/10/10 07:17:30;;;;;;;0.88;0.55;;;8.00;99.90;;;;;;4965799;28;20104;-81
2022/10/10 07:19:56;;;;;;;0.65;0.65;;;8.10;99.90;;;;;;4947939;28;20062;-81
2022/10/10 07:22:22;;;;;;;0.50;0.47;;;8.20;99.90;;;;;;4965622;28;20050;-80
2022/10/10 07:24:47;;;;;;;0.57;0.57;;;8.30;99.90;;;;;;4965745;28;20085;-80
2022/10/10 07:27:13;;;;;;;0.20;0.20;;;8.40;99.90;;;;;;4965106;28;20431;-80
2022/10/10 07:29:39;;;;;;;0.38;0.35;;;8.50;99.90;;;;;;4966103;28;20077;-80
2022/10/10 07:32:04;;;;;;;2.08;0.57;;;8.60;63.30;;;;;;4966092;28;20661;-81
2022/10/10 07:34:30;;;;;;;3.53;1.48;;;8.60;46.00;;;;;;4966133;28;20850;-80
2022/10/10 07:36:56;;;;;;;3.72;1.35;;;8.70;80.90;;;;;;4965865;28;20673;-81
2022/10/10 07:39:24;;;;;;;0.65;0.45;;;8.60;41.50;;;;;;4966239;28;20050;-80
2022/10/10 07:41:50;;;;;;;0.35;0.30;;;8.60;72.60;;;;;;4965488;28;20042;-80
2022/10/10 07:44:17;;;;;;;0.30;0.10;;;8.90;65.70;;;;;;4965853;28;20156;-81
2022/10/10 07:46:43;;;;;;;0.38;0.38;;;8.70;64.60;;;;;;4948319;28;20047;-80
2022/10/10 07:49:09;;;;;;;0.75;0.73;;;8.80;53.10;;;;;;4965839;28;20078;-80
2022/10/10 07:51:36;;;;;;;6.93;1.85;;;8.80;40.00;;;;;;4966592;28;20130;-82
2022/10/10 07:54:01;;;;;;;0.35;0.35;;;9.00;17.40;;;;;;4966476;28;20145;-81
2022/10/10 07:56:27;;;;;;;4.45;0.68;;;9.10;1.00;;;;;;4964925;28;20447;-81
2022/10/10 07:58:53;;;;;;;0.38;0.30;;;9.20;1.00;;;;;;4947856;28;20058;-81
2022/10/10 08:01:19;;;;;;;0.10;0.10;;;9.20;1.00;;;;;;4947986;28;20051;-81
2022/10/10 08:03:45;;;;;;;0.45;0.38;;;9.30;1.00;;;;;;4965079;28;20420;-80
2022/10/10 08:06:13;;;;;;;0.88;0.70;;;9.50;1.00;;;;;;4965341;28;20126;-79
2022/10/10 08:08:39;;;;;;;0.25;0.25;;;9.60;1.00;;;;;;4965027;28;20112;-81
2022/10/10 08:11:07;;;;;;;0.00;0.00;;;9.70;1.00;;;;;;4964944;28;20055;-78
2022/10/10 08:13:34;;;;;;;0.65;0.40;;;9.70;99.90;;;;;;4965257;28;20117;-81
2022/10/10 08:16:01;;;;;;;1.45;0.80;;;9.90;99.90;;;;;;4965082;28;20051;-80
2022/10/10 08:18:27;;;;;;;0.25;0.20;;;10.00;99.90;;;;;;4965045;28;20047;-81
2022/10/10 08:21:04;;;;;;;2.90;1.15;;;10.10;99.90;;;;;;4964860;28;20047;-80
2022/10/10 08:23:29;;;;;;;6.00;2.28;;;10.20;99.90;;;;;;4965534;28;20476;-79
2022/10/10 08:26:03;;;;;;;0.77;0.55;;;10.40;99.90;;;;;;4964839;28;20047;-80
2022/10/10 08:28:29;;;;;;;2.60;0.55;;;10.60;1.00;;;;;;4964726;28;20679;-78
2022/10/10 08:30:55;;;;;;;0.30;0.30;;;10.70;1.00;;;;;;4965429;28;20376;-78
2022/10/10 08:33:24;;;;;;;0.30;0.28;;;10.90;99.90;;;;;;4965286;28;20054;-79
2022/10/10 08:35:50;;;;;;;0.38;0.35;;;11.00;99.90;;;;;;4964187;28;20122;-80
2022/10/10 08:38:15;;;;;;;0.13;0.10;;;11.10;99.90;;;;;;4965677;28;20153;-79
2022/10/10 08:40:45;;;;;;;7.03;0.35;;;11.20;99.90;;;;;;4973785;28;20050;-79
2022/10/10 08:43:23;;;;;;;0.25;0.25;;;11.30;99.90;;;;;;4967798;28;20073;-80
2022/10/10 08:45:51;;;;;;;0.55;0.35;;;11.30;99.90;;;;;;4965874;28;20047;-79
2022/10/10 08:48:23;;;;;;;3.28;0.80;;;11.50;99.90;;;;;;4965457;28;20050;-80
2022/10/10 08:50:56;;;;;;;1.05;0.50;;;11.50;69.70;;;;;;4964502;28;20046;-79
2022/10/10 08:53:41;;;;;;;0.50;0.50;;;11.50;1.00;;;;;;4964511;28;20513;-80
2022/10/10 08:56:13;;;;;;;0.47;0.47;;;11.50;1.00;;;;;;4964761;28;20058;-80
2022/10/10 08:58:44;;;;;;;1.65;0.10;;;11.60;99.90;;;;;;4966888;28;20536;-81
2022/10/10 09:01:23;;;;;;;0.08;0.08;;;11.70;99.90;;;;;;4951722;28;20047;-81
2022/10/10 09:03:59;;;;;;;0.10;0.10;;;11.90;99.90;;;;;;4968779;28;20094;-82
2022/10/10 09:07:03;;;;;;;0.47;0.40;;;12.10;1.00;;;;;;4968823;28;20050;-79
2022/10/10 09:09:56;;;;;;;0.57;0.30;;;12.30;1.00;;;;;;4968727;28;20137;-81
2022/10/10 09:12:46;;;;;;;1.17;0.77;;;12.40;99.90;;;;;;4968564;28;20070;-80
2022/10/10 09:15:19;;;;;;;0.35;0.35;;;12.40;99.90;;;;;;4967839;28;20509;-79
2022/10/10 09:17:53;;;;;;;2.40;0.93;;;12.50;1.00;;;;;;4968463;28;20532;-79
2022/10/10 09:20:44;;;;;;;0.98;0.63;;;12.60;99.90;;;;;;4968076;28;20192;-80
2022/10/10 09:23:22;;;;;;;0.60;0.60;;;12.70;1.00;;;;;;4968246;28;20046;-78
2022/10/10 09:25:58;;;;;;;0.55;0.30;;;12.80;99.90;;;;;;4967569;28;20042;-80
2022/10/10 09:28:24;;;;;;;2.70;0.93;;;12.90;99.90;;;;;;4966067;28;20046;-78
2022/10/10 09:30:58;;;;;;;0.95;0.75;;;13.10;99.90;;;;;;4967107;28;20567;-79
2022/10/10 09:33:38;;;;;;;2.75;1.65;;;13.30;99.90;;;;;;4967054;28;20060;-79
2022/10/10 09:36:09;;;;;;;1.02;0.30;;;13.50;99.90;;;;;;4950940;28;20055;-78
2022/10/10 09:38:48;;;;;;;0.60;0.40;;;13.70;91.40;;;;;;4967699;28;20069;-79
2022/10/10 09:41:19;;;;;;;0.93;0.75;;;13.80;99.90;;;;;;4967036;28;20101;-79
2022/10/10 09:43:45;;;;;;;1.75;0.90;;;13.90;99.90;;;;;;4967204;28;20050;-78
2022/10/10 09:46:10;;;;;;;5.10;2.00;;;14.00;99.90;;;;;;4967444;28;20047;-79
2022/10/10 09:48:40;;;;;;;1.65;1.45;;;14.30;34.00;;;;;;4967103;28;20043;-78
2022/10/10 09:51:15;;;;;;;0.80;0.73;;;14.40;99.90;;;;;;4967001;28;20512;-78
2022/10/10 09:53:42;;;;;;;6.32;2.67;;;14.60;1.00;;;;;;4966808;28;20436;-79
2022/10/10 09:56:16;;;;;;;1.65;1.13;;;15.10;1.00;;;;;;4967399;28;20058;-77
2022/10/10 09:58:44;;;;;;;1.30;0.63;;;14.60;1.00;;;;;;4965871;28;20141;-78
2022/10/10 10:01:18;;;;;;;0.90;0.45;;;14.60;1.00;;;;;;4967149;28;20061;-77
2022/10/10 10:04:06;;;;;;;0.68;0.50;;;14.60;1.00;;;;;;4967489;28;20561;-79
2022/10/10 10:06:32;;;;;;;1.40;1.20;;;14.50;11.90;;;;;;4967991;28;20053;-78
2022/10/10 10:09:01;;;;;;;2.60;0.82;;;14.50;1.00;;;;;;4966654;28;20050;-77
2022/10/10 10:11:33;;;;;;;1.52;0.80;;;14.50;1.00;;;;;;4967595;28;20046;-77
2022/10/10 10:14:01;;;;;;;0.60;0.47;;;14.60;88.10;;;;;;4968104;28;20054;-80
2022/10/10 10:16:45;;;;;;;0.98;0.90;;;14.70;85.90;;;;;;4967908;28;20356;-80
2022/10/10 10:19:31;;;;;;;1.40;0.95;;;15.00;1.00;;;;;;4967746;28;20122;-78
2022/10/10 10:21:57;;;;;;;;;;;14.90;1.00;;;;;;4968875;28;20056;-79
2022/10/10 10:24:31;;;;;;;0.87;0.80;;;15.00;1.00;;;;;;4965991;28;19934;-78
2022/10/10 10:27:10;;;;;;;0.82;0.75;;;15.20;1.00;;;;;;4968428;28;20109;-78
2022/10/10 10:29:36;;;;;;;3.35;2.42;;;15.40;45.00;;;;;;4968564;28;20050;-77
2022/10/10 10:32:30;;;;;;;0.73;0.55;;;15.80;1.00;;;;;;4968132;28;20109;-77
2022/10/10 10:35:11;;;;;;;1.73;0.93;;;16.00;99.90;;;;;;4967523;28;20054;-76
2022/10/10 10:37:46;;;;;;;0.77;0.77;;;16.30;99.90;;;;;;4967540;28;20109;-76
2022/10/10 10:40:11;;;;;;;1.23;1.10;;;16.50;99.90;;;;;;4966905;28;20059;-78
2022/10/10 10:42:56;;;;;;;0.45;0.40;;;16.80;99.90;;;;;;4966952;28;20506;-77
2022/10/10 10:45:50;;;;;;;1.02;0.70;;;17.10;99.90;;;;;;4967412;28;20058;-77
2022/10/10 10:48:28;;;;;;;1.98;0.57;;;17.10;99.90;;;;;;4967486;28;20066;-77
2022/10/10 10:51:05;;;;;;;0.32;0.32;;;17.20;99.90;;;;;;4967760;28;20097;-77
2022/10/10 10:54:02;;;;;;;0.30;0.30;;;17.30;99.90;;;;;;4967088;28;20082;-78
2022/10/10 10:56:50;;;;;;;0.00;0.00;;;17.70;55.70;;;;;;4967220;28;20069;-78
2022/10/10 10:59:19;;;;;;;1.20;0.57;;;17.70;90.40;;;;;;4970804;28;20047;-78
2022/10/10 11:01:56;;;;;;;0.03;0.03;;;17.70;18.20;;;;;;4971801;28;20050;-78
2022/10/10 11:04:40;;;;;;;0.60;0.43;;;17.40;1.00;;;;;;4970713;28;20582;-78
2022/10/10 11:07:19;;;;;;;0.20;0.17;;;17.30;85.10;;;;;;4953481;28;20050;-78
2022/10/10 11:10:14;;;;;;;0.80;0.57;;;17.40;37.00;;;;;;4971557;28;20042;-78
2022/10/10 11:13:05;;;;;;;0.32;0.32;;;17.60;19.70;;;;;;4971330;28;20100;-78
2022/10/10 11:15:41;;;;;;;0.10;0.10;;;17.70;1.00;;;;;;4971209;28;20070;-79
2022/10/10 11:18:17;;;;;;;0.40;0.40;;;17.80;1.00;;;;;;4971236;28;20512;-78
2022/10/10 11:21:01;;;;;;;1.25;0.80;;;17.70;1.00;;;;;;4969725;28;20046;-78
2022/10/10 11:24:01;;;;;;;0.30;0.20;;;17.50;26.50;;;;;;4969182;28;20055;-78
2022/10/10 11:26:36;;;;;;;0.13;0.13;;;17.10;65.10;;;;;;4943917;28;20065;-79
2022/10/10 11:29:18;;;;;;;0.50;0.38;;;16.80;99.90;;;;;;4968100;28;20086;-78
2022/10/10 11:32:07;;;;;;;0.45;0.45;;;16.60;99.90;;;;;;4968221;28;20528;-78
2022/10/10 11:35:06;;;;;;;0.38;0.30;;;16.30;99.90;;;;;;4968430;28;20475;-77
2022/10/10 11:37:35;;;;;;;0.20;0.20;;;16.30;99.90;;;;;;4957239;28;20059;-78
2022/10/10 11:40:04;;;;;;;0.22;0.20;;;15.90;99.90;;;;;;4967508;28;20174;-78
2022/10/10 11:42:30;;;;;;;0.75;0.52;;;15.70;99.90;;;;;;4950765;28;20046;-78
2022/10/10 11:45:08;;;;;;;1.80;1.45;;;15.60;99.90;;;;;;4968122;28;20061;-79
2022/10/10 11:47:39;;;;;;;0.73;0.57;;;15.40;99.90;;;;;;4966642;28;20139;-78
2022/10/10 11:50:04;;;;;;;0.75;0.60;;;15.30;99.90;;;;;;4966615;28;20043;-79
2022/10/10 11:52:46;;;;;;;0.65;0.30;;;15.30;99.90;;;;;;4966998;28;20061;-77
2022/10/10 11:55:17;;;;;;;3.05;1.45;;;15.10;51.00;;;;;;4967271;28;20061;-78
2022/10/10 11:57:54;;;;;;;1.88;0.70;;;14.70;99.90;;;;;;4965215;28;20122;-79
2022/10/10 12:00:20;;;;;;;0.90;0.73;;;14.10;99.90;;;;;;4972517;28;20059;-79
2022/10/10 12:02:46;;;;;;;1.95;0.75;;;13.80;1.00;;;;;;4969980;28;20640;-78
2022/10/10 12:05:24;;;;;;;0.60;0.50;;;13.60;82.90;;;;;;4969754;28;20050;-80
2022/10/10 12:07:56;;;;;;;0.22;0.20;;;13.60;99.90;;;;;;4952441;28;20070;-79
2022/10/10 12:10:52;;;;;;;0.50;0.50;;;13.60;1.00;;;;;;4965647;28;20054;-80
2022/10/10 12:13:30;;;;;;;0.10;0.10;;;13.60;1.00;;;;;;4936483;28;20058;-80
2022/10/10 12:16:00;;;;;;;1.65;1.55;;;13.60;42.20;;;;;;4970211;28;20051;-79
2022/10/10 12:18:37;;;;;;;0.55;0.52;;;13.60;1.00;;;;;;4969957;28;20104;-79
2022/10/10 12:21:09;;;;;;;0.13;0.13;;;13.60;1.00;;;;;;4971442;28;20069;-78
2022/10/10 12:23:35;;;;;;;8.15;2.22;;;13.60;46.10;;;;;;4970745;28;20066;-78
2022/10/10 12:26:01;;;;;;;0.55;0.40;;;13.60;1.00;;;;;;4971569;28;20481;-80
2022/10/10 12:28:36;;;;;;;0.68;0.20;;;13.60;1.00;;;;;;4971019;28;20101;-79
2022/10/10 12:31:04;;;;;;;0.10;0.10;;;13.70;1.00;;;;;;4970697;28;20066;-79
2022/10/10 12:33:30;;;;;;;2.83;2.05;;;13.80;1.00;;;;;;4967874;28;20090;-79
2022/10/10 12:35:56;;;;;;;2.10;0.82;;;14.00;1.00;;;;;;4968262;28;20042;-78
2022/10/10 12:38:27;;;;;;;0.63;0.55;;;14.20;99.90;;;;;;4968959;28;20121;-79
2022/10/10 12:41:16;;;;;;;0.38;0.35;;;14.40;99.90;;;;;;4968463;28;20050;-81
2022/10/10 12:43:49;;;;;;;0.10;0.08;;;14.70;99.90;;;;;;4950959;28;20078;-79
2022/10/10 12:46:27;;;;;;;1.20;0.93;;;15.00;1.00;;;;;;4968028;28;20065;-79
2022/10/10 12:49:12;;;;;;;0.60;0.40;;;15.00;99.90;;;;;;4968198;28;20058;-79
2022/10/10 12:51:39;;;;;;;1.33;0.80;;;15.00;99.90;;;;;;4963484;28;20419;-78
2022/10/10 12:54:07;;;;;;;1.05;0.95;;;14.90;99.90;;;;;;4963110;28;20459;-80
2022/10/10 12:56:42;;;;;;;0.25;0.25;;;14.70;1.00;;;;;;4963179;28;20047;-79
2022/10/10 12:59:22;;;;;;;0.45;0.25;;;14.60;1.00;;;;;;4963953;28;20435;-80
2022/10/10 13:01:55;;;;;;;0.10;0.10;;;14.50;99.90;;;;;;4963684;28;20066;-79
2022/10/10 13:04:22;;;;;;;0.73;0.40;;;14.30;99.90;;;;;;4963953;28;20050;-80
2022/10/10 13:06:52;;;;;;;0.60;0.50;;;14.10;1.00;;;;;;4963352;28;20059;-80
2022/10/10 13:09:34;;;;;;;0.38;0.10;;;14.00;32.10;;;;;;4962568;28;20042;-80
2022/10/10 13:12:03;;;;;;;1.80;1.33;;;13.90;23.20;;;;;;4963464;28;20074;-81
2022/10/10 13:14:43;;;;;;;1.58;0.73;;;13.80;99.90;;;;;;4963375;28;20638;-81
2022/10/10 13:17:36;;;;;;;1.60;1.30;;;13.70;99.90;;;;;;4963973;28;20053;-81